Time;durP1;ratioP1;P1;durP2;ratioP2;P2;SDS_P1;SDS_P2;PMS_P1;PMS_P2;Temp;Humidity;BMP_temperature;BMP_pressure;BME280_temperature;BME280_humidity;BME280_pressure;Samples;Min_cycle;Max_cycle;Signal;HPM_P1;HPM_P2
2024/01/31 00:01:44;;;;;;;11.50;9.43;;;10.60;99.90;;;;;;4982061;28;20615;-73
2024/01/31 00:04:09;;;;;;;9.83;8.30;;;10.60;99.90;;;;;;4976961;28;20227;-73
2024/01/31 00:06:35;;;;;;;10.27;8.67;;;10.60;99.90;;;;;;4976646;28;20178;-73
2024/01/31 00:09:01;;;;;;;11.43;8.63;;;10.60;99.90;;;;;;4976572;28;20172;-72
2024/01/31 00:11:30;;;;;;;13.37;9.83;;;10.40;99.90;;;;;;4987286;28;20192;-73
2024/01/31 00:13:56;;;;;;;11.47;8.40;;;10.30;99.90;;;;;;4996219;28;20172;-72
2024/01/31 00:16:22;;;;;;;9.53;8.60;;;10.40;99.90;;;;;;4984171;28;20411;-74
2024/01/31 00:18:49;;;;;;;9.30;8.20;;;10.30;99.90;;;;;;4976996;28;20416;-73
2024/01/31 00:21:18;;;;;;;11.60;8.87;;;10.20;99.90;;;;;;4986215;28;20224;-73
2024/01/31 00:23:44;;;;;;;10.43;8.40;;;10.20;99.90;;;;;;4995681;28;20419;-71
2024/01/31 00:26:09;;;;;;;9.40;8.40;;;10.30;99.90;;;;;;4995678;28;20780;-71
2024/01/31 00:28:35;;;;;;;10.03;8.70;;;10.40;99.90;;;;;;4995657;28;20510;-72
2024/01/31 00:31:00;;;;;;;9.60;8.60;;;10.50;99.90;;;;;;4987484;28;20193;-72
2024/01/31 00:33:26;;;;;;;10.20;8.33;;;10.50;99.90;;;;;;4976348;28;20176;-72
2024/01/31 00:35:53;;;;;;;10.10;8.73;;;10.50;99.90;;;;;;4976021;28;20188;-73
2024/01/31 00:38:18;;;;;;;10.63;8.57;;;10.50;99.90;;;;;;4976311;28;20409;-73
2024/01/31 00:40:44;;;;;;;10.47;8.60;;;10.60;99.90;;;;;;4981895;28;20435;-72
2024/01/31 00:43:10;;;;;;;10.03;8.67;;;10.60;99.90;;;;;;4994166;28;20185;-72
2024/01/31 00:45:35;;;;;;;11.10;9.93;;;10.60;99.90;;;;;;4995638;28;20273;-73
2024/01/31 00:48:01;;;;;;;10.60;8.60;;;10.60;99.90;;;;;;4995838;28;20192;-72
2024/01/31 00:50:27;;;;;;;9.37;8.40;;;10.50;99.90;;;;;;4992098;28;20204;-72
2024/01/31 00:52:53;;;;;;;10.70;8.80;;;10.50;99.90;;;;;;4976582;28;20912;-72
2024/01/31 00:55:19;;;;;;;11.27;10.00;;;10.50;99.90;;;;;;4975989;28;20178;-72
2024/01/31 00:57:46;;;;;;;12.57;8.63;;;10.40;99.90;;;;;;4976047;28;20180;-73
2024/01/31 01:00:12;;;;;;;11.37;9.30;;;10.40;99.90;;;;;;4976795;28;20547;-73
2024/01/31 01:02:40;;;;;;;9.53;8.57;;;10.40;99.90;;;;;;4993357;28;20967;-72
2024/01/31 01:05:10;;;;;;;8.53;7.70;;;10.50;99.90;;;;;;4994919;28;20498;-72
2024/01/31 01:07:39;;;;;;;10.03;8.90;;;10.50;99.90;;;;;;4995208;28;20423;-72
2024/01/31 01:10:15;;;;;;;9.20;8.30;;;10.60;99.90;;;;;;4993601;28;20458;-72
2024/01/31 01:12:42;;;;;;;9.10;8.20;;;10.70;99.90;;;;;;4990467;28;20937;-73
2024/01/31 01:15:08;;;;;;;10.93;8.13;;;10.60;99.90;;;;;;4975464;28;20405;-73
2024/01/31 01:17:35;;;;;;;8.27;7.47;;;10.50;99.90;;;;;;4975662;28;20515;-73
2024/01/31 01:20:00;;;;;;;10.23;7.90;;;10.50;99.90;;;;;;4975671;28;20431;-73
2024/01/31 01:22:26;;;;;;;10.13;7.87;;;10.50;99.90;;;;;;4993951;28;20418;-73
2024/01/31 01:24:52;;;;;;;10.20;7.30;;;10.40;99.90;;;;;;4994945;28;20180;-73
2024/01/31 01:27:18;;;;;;;10.20;7.60;;;10.30;99.90;;;;;;4993363;28;20246;-73
2024/01/31 01:29:44;;;;;;;7.57;6.63;;;10.30;99.90;;;;;;4994551;28;20442;-73
2024/01/31 01:32:09;;;;;;;7.93;6.77;;;10.40;99.90;;;;;;4994452;28;20529;-73
2024/01/31 01:34:37;;;;;;;8.70;7.80;;;10.50;99.90;;;;;;4994515;28;20177;-73
2024/01/31 01:37:03;;;;;;;7.80;6.97;;;10.60;99.90;;;;;;4994980;28;20710;-70
2024/01/31 01:39:28;;;;;;;8.23;7.43;;;10.60;99.90;;;;;;4994462;28;20404;-70
2024/01/31 01:41:54;;;;;;;8.37;7.53;;;10.70;99.90;;;;;;4980456;28;20723;-70
2024/01/31 01:44:19;;;;;;;8.17;7.37;;;10.70;99.90;;;;;;4973879;28;20209;-70
2024/01/31 01:46:45;;;;;;;9.50;7.60;;;10.60;99.90;;;;;;4975732;28;20640;-69
2024/01/31 01:49:13;;;;;;;8.53;7.53;;;10.60;99.90;;;;;;4974069;28;20191;-70
2024/01/31 01:51:39;;;;;;;7.90;7.10;;;10.70;99.90;;;;;;4986863;28;20482;-69
2024/01/31 01:54:06;;;;;;;7.30;6.60;;;10.70;99.90;;;;;;4994259;28;20420;-70
2024/01/31 01:56:31;;;;;;;10.97;6.93;;;10.70;99.90;;;;;;4994268;28;20423;-69
2024/01/31 01:58:57;;;;;;;8.27;7.57;;;10.70;99.90;;;;;;4994202;28;20891;-69
2024/01/31 02:01:26;;;;;;;8.10;7.00;;;10.70;99.90;;;;;;4984473;28;20193;-69
2024/01/31 02:03:55;;;;;;;9.40;6.70;;;10.70;99.90;;;;;;4974704;28;20173;-69
2024/01/31 02:06:23;;;;;;;8.27;7.00;;;10.70;99.90;;;;;;4974729;28;20898;-69
2024/01/31 02:08:49;;;;;;;8.73;7.83;;;10.60;99.90;;;;;;4974635;28;20420;-69
2024/01/31 02:11:14;;;;;;;7.67;6.97;;;10.70;99.90;;;;;;4976406;28;20456;-69
2024/01/31 02:13:40;;;;;;;7.97;7.17;;;10.70;99.90;;;;;;4976709;28;20417;-69
2024/01/31 02:16:06;;;;;;;7.83;7.10;;;10.70;99.90;;;;;;4974608;28;20170;-69
2024/01/31 02:18:31;;;;;;;9.23;7.53;;;10.60;99.90;;;;;;4974256;28;20173;-69
2024/01/31 02:20:57;;;;;;;7.20;6.50;;;10.60;99.90;;;;;;4980032;28;20220;-69
2024/01/31 02:23:23;;;;;;;6.80;6.20;;;10.50;99.90;;;;;;4993791;28;20197;-69
2024/01/31 02:25:49;;;;;;;7.10;6.40;;;10.60;99.90;;;;;;4992369;28;20262;-69
2024/01/31 02:28:14;;;;;;;7.43;6.50;;;10.50;99.90;;;;;;4993840;28;20231;-69
2024/01/31 02:30:41;;;;;;;8.37;7.57;;;10.50;99.90;;;;;;4989890;28;20448;-69
2024/01/31 02:33:06;;;;;;;7.30;6.60;;;10.40;99.90;;;;;;4974378;28;20174;-68
2024/01/31 02:35:33;;;;;;;7.80;6.90;;;10.40;99.90;;;;;;4973907;28;20417;-69
2024/01/31 02:37:59;;;;;;;7.00;6.30;;;10.40;99.90;;;;;;4974269;28;20219;-69
2024/01/31 02:40:25;;;;;;;7.70;6.90;;;10.50;99.90;;;;;;4976332;28;20511;-69
2024/01/31 02:42:51;;;;;;;6.93;6.23;;;10.50;99.90;;;;;;4993754;28;20433;-69
2024/01/31 02:45:17;;;;;;;7.77;6.97;;;10.50;99.90;;;;;;4993655;28;20200;-69
2024/01/31 02:47:42;;;;;;;6.80;6.20;;;10.60;99.90;;;;;;4993402;28;20219;-69
2024/01/31 02:50:08;;;;;;;7.97;7.10;;;10.70;99.90;;;;;;4993007;28;20204;-70
2024/01/31 02:52:34;;;;;;;7.03;6.30;;;10.70;99.90;;;;;;4973646;28;20226;-70
2024/01/31 02:55:01;;;;;;;7.43;6.70;;;10.70;99.90;;;;;;4975901;28;20413;-70
2024/01/31 02:57:27;;;;;;;8.10;5.90;;;10.70;99.90;;;;;;4993413;28;20237;-69
2024/01/31 02:59:53;;;;;;;7.83;6.80;;;10.70;99.90;;;;;;4993338;28;20465;-68
2024/01/31 03:02:18;;;;;;;6.80;6.07;;;10.80;99.90;;;;;;4977224;28;20424;-70
2024/01/31 03:04:44;;;;;;;7.70;6.90;;;10.80;99.90;;;;;;4973986;28;20247;-70
2024/01/31 03:07:10;;;;;;;7.20;6.50;;;10.80;99.90;;;;;;4973982;28;20203;-70
2024/01/31 03:09:37;;;;;;;8.00;6.93;;;10.70;99.90;;;;;;4973849;28;20178;-70
2024/01/31 03:12:04;;;;;;;7.50;6.30;;;10.70;99.90;;;;;;4987744;28;20482;-71
2024/01/31 03:14:33;;;;;;;7.60;6.80;;;10.70;99.90;;;;;;4993230;28;20453;-69
2024/01/31 03:16:59;;;;;;;9.87;6.40;;;10.70;99.90;;;;;;4993650;28;20454;-69
2024/01/31 03:19:27;;;;;;;9.63;6.97;;;10.70;99.90;;;;;;4993413;28;20491;-69
2024/01/31 03:21:53;;;;;;;7.07;5.83;;;10.70;99.90;;;;;;4992840;28;20458;-69
2024/01/31 03:24:18;;;;;;;8.33;7.00;;;10.70;99.90;;;;;;4993180;28;20937;-69
2024/01/31 03:26:44;;;;;;;8.87;7.00;;;10.70;99.90;;;;;;4993110;28;20682;-68
2024/01/31 03:29:10;;;;;;;6.80;6.20;;;10.70;99.90;;;;;;4993087;28;20662;-69
2024/01/31 03:31:35;;;;;;;7.27;6.53;;;10.60;99.90;;;;;;4982833;28;20204;-69
2024/01/31 03:34:01;;;;;;;7.83;6.90;;;10.70;99.90;;;;;;4973912;28;20304;-69
2024/01/31 03:36:27;;;;;;;8.20;6.50;;;10.80;99.90;;;;;;4973597;28;20172;-69
2024/01/31 03:38:54;;;;;;;6.90;5.70;;;10.80;99.90;;;;;;4974191;28;20176;-69
2024/01/31 03:41:20;;;;;;;7.20;6.50;;;10.80;99.90;;;;;;4981488;28;20205;-69
2024/01/31 03:43:45;;;;;;;7.80;6.57;;;10.80;99.90;;;;;;4993017;28;20416;-69
2024/01/31 03:46:12;;;;;;;7.03;6.37;;;10.80;99.90;;;;;;4993729;28;20184;-68
2024/01/31 03:48:38;;;;;;;6.70;6.00;;;10.70;99.90;;;;;;4996488;28;20173;-69
2024/01/31 03:51:04;;;;;;;7.03;6.33;;;10.60;99.90;;;;;;4990765;28;20451;-69
2024/01/31 03:53:29;;;;;;;6.43;5.67;;;10.60;99.90;;;;;;4977199;28;20266;-69
2024/01/31 03:55:55;;;;;;;7.23;6.53;;;10.60;99.90;;;;;;4976923;28;20492;-69
2024/01/31 03:58:21;;;;;;;7.43;6.47;;;10.70;99.90;;;;;;4975562;28;20184;-69
2024/01/31 04:00:47;;;;;;;8.20;5.90;;;10.70;99.90;;;;;;4979128;28;20197;-69
2024/01/31 04:03:12;;;;;;;7.73;6.90;;;10.60;99.90;;;;;;4995050;28;20207;-69
2024/01/31 04:05:38;;;;;;;6.90;6.20;;;10.60;99.90;;;;;;4984917;28;20207;-69
2024/01/31 04:08:04;;;;;;;8.50;6.37;;;10.60;99.90;;;;;;4976856;28;20250;-69
2024/01/31 04:10:29;;;;;;;7.97;7.17;;;10.60;99.90;;;;;;4976918;28;20195;-70
2024/01/31 04:12:55;;;;;;;8.07;7.03;;;10.60;99.90;;;;;;4996201;28;20415;-69
2024/01/31 04:15:21;;;;;;;8.03;7.20;;;10.60;99.90;;;;;;4996214;28;20169;-69
2024/01/31 04:17:46;;;;;;;6.90;6.23;;;10.60;99.90;;;;;;4995879;28;20172;-69
2024/01/31 04:22:41;;;;;;;8.43;6.63;;;10.60;99.90;;;;;;5012718;28;20227;-68
2024/01/31 04:25:07;;;;;;;9.37;6.70;;;10.50;99.90;;;;;;5015436;28;20926;-68
2024/01/31 04:27:33;;;;;;;7.80;6.93;;;10.60;99.90;;;;;;5015869;28;20178;-68
2024/01/31 04:29:58;;;;;;;8.17;6.50;;;10.60;99.90;;;;;;5015741;28;20394;-68
2024/01/31 04:32:24;;;;;;;7.73;7.03;;;10.70;99.90;;;;;;5014879;28;20679;-68
2024/01/31 04:34:50;;;;;;;6.67;5.90;;;10.70;99.90;;;;;;5013803;28;20176;-70
2024/01/31 04:37:16;;;;;;;8.10;6.00;;;10.70;99.90;;;;;;5015589;28;20175;-70
2024/01/31 04:39:42;;;;;;;6.57;5.90;;;10.70;99.90;;;;;;5015072;28;20414;-69
2024/01/31 04:42:08;;;;;;;6.33;5.70;;;10.70;99.90;;;;;;5001350;28;20195;-69
2024/01/31 04:44:34;;;;;;;8.57;7.20;;;10.70;99.90;;;;;;4995894;28;20408;-69
2024/01/31 04:47:00;;;;;;;6.80;6.20;;;10.70;99.90;;;;;;4995315;28;20177;-69
2024/01/31 04:49:25;;;;;;;8.27;6.67;;;10.70;99.90;;;;;;4995529;28;20182;-69
2024/01/31 04:51:51;;;;;;;6.83;5.87;;;10.70;99.90;;;;;;5006238;28;20229;-69
2024/01/31 04:54:17;;;;;;;5.70;5.20;;;10.70;99.90;;;;;;5014680;28;20171;-69
2024/01/31 04:56:43;;;;;;;9.33;7.30;;;10.70;99.90;;;;;;5014518;28;20488;-69
2024/01/31 04:59:08;;;;;;;6.97;5.20;;;10.70;99.90;;;;;;5014415;28;20675;-69
2024/01/31 05:01:34;;;;;;;8.40;6.40;;;10.60;99.90;;;;;;5005837;28;20193;-69
2024/01/31 05:04:00;;;;;;;6.30;5.70;;;10.60;99.90;;;;;;4995222;28;20176;-69
2024/01/31 05:06:26;;;;;;;9.77;7.00;;;10.60;99.90;;;;;;4995265;28;20180;-69
2024/01/31 05:08:51;;;;;;;7.33;5.63;;;10.60;99.90;;;;;;4994857;28;20257;-70
2024/01/31 05:11:17;;;;;;;7.43;6.70;;;10.70;99.90;;;;;;5000833;28;20200;-69
2024/01/31 05:13:43;;;;;;;6.97;6.00;;;10.60;99.90;;;;;;5014389;28;20170;-69
2024/01/31 05:16:09;;;;;;;7.10;6.40;;;10.50;99.90;;;;;;5014122;28;20156;-69
2024/01/31 05:18:35;;;;;;;8.47;6.80;;;10.40;99.90;;;;;;5014261;28;20912;-69
2024/01/31 05:21:01;;;;;;;7.87;6.70;;;10.40;99.90;;;;;;5014102;28;20961;-69
2024/01/31 05:23:27;;;;;;;6.80;6.20;;;10.30;99.90;;;;;;5014191;28;20415;-69
2024/01/31 05:25:53;;;;;;;9.37;6.30;;;10.40;99.90;;;;;;5014174;28;20465;-69
2024/01/31 05:28:18;;;;;;;7.13;6.43;;;10.50;99.90;;;;;;5014430;28;20170;-69
2024/01/31 05:30:44;;;;;;;8.63;6.63;;;10.50;99.90;;;;;;5012658;28;20292;-69
2024/01/31 05:33:10;;;;;;;6.13;5.53;;;10.50;99.90;;;;;;4994412;28;20175;-69
2024/01/31 05:35:36;;;;;;;8.40;6.10;;;10.50;99.90;;;;;;4994370;28;20161;-70
2024/01/31 05:38:03;;;;;;;7.10;6.40;;;10.60;99.90;;;;;;4994428;28;20432;-70
2024/01/31 05:40:29;;;;;;;7.70;6.63;;;10.40;99.90;;;;;;4993068;28;20964;-70
2024/01/31 05:42:56;;;;;;;6.73;6.00;;;10.50;99.90;;;;;;5013202;28;20403;-70
2024/01/31 05:45:21;;;;;;;8.93;6.63;;;10.50;99.90;;;;;;5013889;28;20436;-69
2024/01/31 05:47:47;;;;;;;7.50;6.80;;;10.50;99.90;;;;;;5013880;28;20399;-70
2024/01/31 05:50:12;;;;;;;8.60;5.47;;;10.50;99.90;;;;;;5013865;28;20196;-70
2024/01/31 05:52:38;;;;;;;8.10;6.27;;;10.40;99.90;;;;;;4997078;28;20269;-70
2024/01/31 05:55:04;;;;;;;8.63;7.00;;;10.30;99.90;;;;;;4994034;28;20624;-70
2024/01/31 05:57:30;;;;;;;7.13;6.40;;;10.20;99.90;;;;;;4994241;28;20168;-69
2024/01/31 05:59:55;;;;;;;8.50;7.63;;;10.20;99.90;;;;;;4996406;28;20409;-69
2024/01/31 06:02:21;;;;;;;8.43;6.53;;;10.30;99.90;;;;;;5007898;28;20227;-69
2024/01/31 06:04:46;;;;;;;45.20;25.63;;;10.30;99.90;;;;;;5013710;28;20172;-69
2024/01/31 06:07:12;;;;;;;33.80;22.20;;;10.30;99.90;;;;;;5013698;28;20182;-70
2024/01/31 06:09:38;;;;;;;17.20;12.97;;;10.40;99.90;;;;;;5012600;28;20174;-69
2024/01/31 06:12:05;;;;;;;7.47;6.23;;;10.50;99.90;;;;;;5008466;28;20207;-69
2024/01/31 06:14:31;;;;;;;7.90;6.70;;;10.50;99.90;;;;;;5013476;28;20414;-69
2024/01/31 06:16:57;;;;;;;17.33;13.10;;;10.50;99.90;;;;;;5013434;28;20413;-69
2024/01/31 06:19:23;;;;;;;25.67;18.93;;;10.50;99.90;;;;;;5013449;28;20410;-70
2024/01/31 06:21:49;;;;;;;20.17;12.30;;;10.60;99.90;;;;;;5003621;28;20443;-70
2024/01/31 06:24:15;;;;;;;15.97;11.23;;;10.70;99.90;;;;;;4993721;28;20176;-69
2024/01/31 06:26:41;;;;;;;23.73;16.17;;;10.70;99.90;;;;;;4994181;28;20494;-70
2024/01/31 06:29:08;;;;;;;64.40;37.90;;;10.70;99.90;;;;;;4994010;28;20179;-68
2024/01/31 06:31:40;;;;;;;18.23;16.13;;;10.50;99.90;;;;;;5000826;28;20859;-68
2024/01/31 06:34:06;;;;;;;17.60;14.67;;;10.10;99.90;;;;;;5013482;28;20450;-68
2024/01/31 06:36:31;;;;;;;37.10;26.93;;;10.00;99.90;;;;;;5011936;28;20413;-68
2024/01/31 06:38:59;;;;;;;31.57;23.17;;;10.20;99.90;;;;;;5013440;28;20434;-68
2024/01/31 06:41:25;;;;;;;20.07;15.00;;;10.30;99.90;;;;;;5007177;28;20731;-69
2024/01/31 06:43:51;;;;;;;19.43;14.23;;;10.40;99.90;;;;;;4993650;28;20499;-68
2024/01/31 06:46:18;;;;;;;14.97;13.13;;;10.50;99.90;;;;;;4993521;28;20857;-69
2024/01/31 06:48:44;;;;;;;17.60;12.87;;;10.50;99.90;;;;;;4993386;28;20637;-69
2024/01/31 06:51:09;;;;;;;14.93;13.30;;;10.50;99.90;;;;;;4996660;28;20532;-69
2024/01/31 06:53:35;;;;;;;13.67;11.77;;;10.50;99.90;;;;;;5012790;28;20183;-69
2024/01/31 06:56:00;;;;;;;16.40;13.17;;;10.60;99.90;;;;;;5012913;28;20176;-69
2024/01/31 06:58:26;;;;;;;14.60;12.53;;;10.50;99.90;;;;;;5013007;28;20167;-69
2024/01/31 07:00:55;;;;;;;14.50;12.93;;;10.40;99.90;;;;;;5010442;28;20195;-69
2024/01/31 07:03:21;;;;;;;13.40;12.10;;;10.40;99.90;;;;;;4992086;28;20252;-69
2024/01/31 07:05:47;;;;;;;15.27;12.87;;;10.50;99.90;;;;;;4993296;28;20493;-70
2024/01/31 07:08:13;;;;;;;16.13;14.40;;;10.50;99.90;;;;;;4993527;28;20175;-70
2024/01/31 07:10:39;;;;;;;15.80;13.50;;;10.50;99.90;;;;;;4993272;28;20424;-70
2024/01/31 07:13:04;;;;;;;15.43;13.87;;;10.50;99.90;;;;;;5011674;28;20420;-70
2024/01/31 07:15:30;;;;;;;14.27;12.53;;;10.50;99.90;;;;;;5013158;28;20167;-70
2024/01/31 07:17:55;;;;;;;20.37;12.60;;;10.50;99.90;;;;;;5012771;28;20170;-70
2024/01/31 07:20:21;;;;;;;18.33;12.77;;;10.50;99.90;;;;;;5013670;28;20199;-70
2024/01/31 07:22:47;;;;;;;14.33;12.93;;;10.40;99.90;;;;;;5015315;28;20201;-69
2024/01/31 07:25:15;;;;;;;17.67;14.00;;;10.40;99.90;;;;;;5016835;28;20583;-70
2024/01/31 07:27:41;;;;;;;15.20;13.70;;;10.50;99.90;;;;;;5016144;28;20174;-69
2024/01/31 07:30:10;;;;;;;16.40;14.17;;;10.50;99.90;;;;;;5016197;28;20407;-69
2024/01/31 07:32:36;;;;;;;15.90;13.50;;;10.50;99.90;;;;;;5000011;28;20457;-70
2024/01/31 07:35:01;;;;;;;14.53;12.70;;;10.30;99.90;;;;;;4997113;28;20454;-69
2024/01/31 07:37:27;;;;;;;13.87;12.53;;;10.30;99.90;;;;;;4996438;28;20400;-69
2024/01/31 07:39:56;;;;;;;14.83;13.07;;;10.30;99.90;;;;;;4996480;28;20174;-69
2024/01/31 07:42:21;;;;;;;14.23;12.77;;;10.20;99.90;;;;;;5008893;28;20200;-70
2024/01/31 07:44:47;;;;;;;14.70;12.77;;;10.10;99.90;;;;;;5015583;28;20411;-70
2024/01/31 07:47:13;;;;;;;14.23;12.30;;;10.20;99.90;;;;;;5016175;28;20172;-68
2024/01/31 07:49:41;;;;;;;13.27;11.73;;;10.30;99.90;;;;;;5016103;28;20645;-70
2024/01/31 07:52:06;;;;;;;13.80;12.23;;;10.30;99.90;;;;;;5001988;28;20444;-71
2024/01/31 07:54:32;;;;;;;13.87;12.43;;;10.30;99.90;;;;;;4997124;28;20415;-69
2024/01/31 07:56:57;;;;;;;14.47;12.73;;;10.40;99.90;;;;;;4994774;28;20179;-70
2024/01/31 07:59:23;;;;;;;13.73;12.30;;;10.50;99.90;;;;;;4996141;28;20167;-71
2024/01/31 08:01:48;;;;;;;14.70;13.10;;;10.50;99.90;;;;;;5002761;28;20278;-69
2024/01/31 08:04:14;;;;;;;12.67;11.47;;;10.40;99.90;;;;;;5015815;28;20227;-70
2024/01/31 08:06:43;;;;;;;13.57;12.13;;;10.40;99.90;;;;;;5015600;28;20229;-69
2024/01/31 08:09:09;;;;;;;12.90;11.47;;;10.50;99.90;;;;;;5015603;28;20198;-68
2024/01/31 08:11:41;;;;;;;15.00;13.40;;;10.60;99.90;;;;;;5009383;28;20501;-69
2024/01/31 08:14:07;;;;;;;15.90;12.50;;;10.50;99.90;;;;;;4996070;28;20487;-68
2024/01/31 08:16:32;;;;;;;16.23;14.60;;;10.50;99.90;;;;;;4996135;28;20529;-69
2024/01/31 08:18:58;;;;;;;31.83;26.00;;;10.60;99.90;;;;;;4999517;28;20176;-67
2024/01/31 08:21:23;;;;;;;14.83;13.33;;;10.70;99.90;;;;;;5010903;28;20218;-70
2024/01/31 08:23:50;;;;;;;18.63;14.43;;;10.70;99.90;;;;;;4995726;28;20180;-68
2024/01/31 08:26:17;;;;;;;12.87;11.60;;;10.80;99.90;;;;;;4995701;28;20176;-71
2024/01/31 08:28:43;;;;;;;14.73;13.00;;;10.80;99.90;;;;;;4995615;28;20419;-70
2024/01/31 08:31:08;;;;;;;13.50;12.10;;;10.80;99.90;;;;;;4997081;28;20455;-68
2024/01/31 08:33:34;;;;;;;13.10;11.80;;;10.80;99.90;;;;;;5014675;28;20216;-71
2024/01/31 08:35:59;;;;;;;13.67;12.20;;;10.90;99.90;;;;;;5015225;28;20175;-68
2024/01/31 08:38:25;;;;;;;13.70;11.70;;;10.90;99.90;;;;;;5015639;28;20184;-67
2024/01/31 08:40:50;;;;;;;13.33;11.47;;;10.90;99.90;;;;;;5014843;28;20195;-69
2024/01/31 08:43:16;;;;;;;13.33;11.97;;;11.00;99.90;;;;;;4995779;28;20176;-68
2024/01/31 08:45:41;;;;;;;17.33;13.37;;;11.00;99.90;;;;;;4995406;28;20178;-68
2024/01/31 08:48:07;;;;;;;14.90;13.40;;;11.00;99.90;;;;;;4995406;28;20235;-69
2024/01/31 08:50:33;;;;;;;17.07;14.07;;;11.00;99.90;;;;;;4995014;28;20226;-70
2024/01/31 08:52:58;;;;;;;17.13;13.30;;;11.10;99.90;;;;;;5011681;28;20175;-70
2024/01/31 08:55:24;;;;;;;15.63;13.73;;;11.10;99.90;;;;;;5014646;28;20174;-70
2024/01/31 08:57:49;;;;;;;21.03;18.07;;;11.10;99.90;;;;;;5013549;28;20198;-69
2024/01/31 09:00:15;;;;;;;20.00;17.60;;;11.00;99.90;;;;;;5014787;28;20219;-69
2024/01/31 09:02:41;;;;;;;18.60;16.30;;;10.80;99.90;;;;;;4999786;28;20203;-69
2024/01/31 09:05:10;;;;;;;22.23;19.03;;;10.80;99.90;;;;;;4994774;28;20419;-70
2024/01/31 09:07:36;;;;;;;17.77;15.87;;;10.90;99.90;;;;;;4994814;28;20184;-70
2024/01/31 09:10:01;;;;;;;20.80;16.63;;;11.00;99.90;;;;;;4994711;28;20412;-72
2024/01/31 09:12:28;;;;;;;20.00;17.80;;;11.10;99.90;;;;;;5005282;28;20207;-69
2024/01/31 09:14:54;;;;;;;19.37;17.37;;;11.20;99.90;;;;;;5014438;28;20218;-70
2024/01/31 09:17:20;;;;;;;19.20;16.20;;;11.30;99.90;;;;;;5014519;28;20932;-71
2024/01/31 09:19:45;;;;;;;20.80;17.60;;;11.30;99.90;;;;;;5014852;28;20294;-70
2024/01/31 09:22:11;;;;;;;18.13;16.33;;;11.40;99.90;;;;;;5014358;28;20529;-70
2024/01/31 09:24:37;;;;;;;20.17;17.13;;;11.40;99.90;;;;;;5014130;28;20179;-69
2024/01/31 09:27:02;;;;;;;19.10;16.87;;;11.40;99.90;;;;;;5013923;28;20168;-69
2024/01/31 09:29:28;;;;;;;21.90;17.20;;;11.40;99.90;;;;;;5014129;28;20414;-70
2024/01/31 09:31:54;;;;;;;20.50;18.40;;;11.60;99.90;;;;;;5006892;28;20209;-69
2024/01/31 09:34:19;;;;;;;21.27;18.00;;;11.70;99.90;;;;;;4994447;28;20177;-71
2024/01/31 09:36:51;;;;;;;23.73;19.90;;;11.80;99.90;;;;;;4994624;28;20183;-73
2024/01/31 09:39:16;;;;;;;19.97;16.90;;;11.70;99.90;;;;;;4993120;28;20170;-71
2024/01/31 09:41:42;;;;;;;18.83;16.83;;;11.60;99.90;;;;;;4999638;28;20485;-70
2024/01/31 09:44:09;;;;;;;18.80;16.80;;;11.60;99.90;;;;;;5013906;28;20546;-69
2024/01/31 09:46:36;;;;;;;20.23;18.07;;;11.50;99.90;;;;;;5013800;28;20213;-71
2024/01/31 09:49:01;;;;;;;19.37;17.20;;;11.60;99.90;;;;;;5013699;28;20521;-70
2024/01/31 09:51:27;;;;;;;21.13;18.53;;;11.50;99.90;;;;;;5007659;28;20447;-71
2024/01/31 09:53:57;;;;;;;18.77;16.80;;;11.40;99.90;;;;;;4994364;28;20622;-70
2024/01/31 09:56:27;;;;;;;18.67;16.60;;;11.50;99.90;;;;;;4994305;28;20150;-71
2024/01/31 09:58:56;;;;;;;20.70;17.07;;;11.50;99.90;;;;;;4994414;28;20465;-71
2024/01/31 10:01:25;;;;;;;23.77;19.47;;;11.60;99.90;;;;;;4996481;28;20955;-70
2024/01/31 10:03:51;;;;;;;19.53;17.40;;;11.50;99.90;;;;;;5012353;28;20416;-69
2024/01/31 10:06:17;;;;;;;21.27;18.57;;;11.50;99.90;;;;;;5012806;28;20417;-70
2024/01/31 10:08:42;;;;;;;24.33;19.00;;;11.60;99.90;;;;;;5011799;28;20419;-70
2024/01/31 10:11:08;;;;;;;20.43;17.60;;;11.60;99.90;;;;;;5013090;28;20244;-71
2024/01/31 10:13:35;;;;;;;24.23;18.50;;;11.50;99.90;;;;;;5013408;28;20231;-70
2024/01/31 10:16:00;;;;;;;21.43;18.20;;;11.20;99.90;;;;;;5013180;28;20409;-69
2024/01/31 10:18:28;;;;;;;23.70;19.90;;;11.30;99.90;;;;;;5013140;28;20222;-70
2024/01/31 10:20:55;;;;;;;22.00;18.40;;;11.30;99.90;;;;;;4995921;28;20216;-71
2024/01/31 10:23:22;;;;;;;21.67;18.40;;;11.60;99.90;;;;;;4993865;28;20418;-71
2024/01/31 10:25:47;;;;;;;20.40;17.07;;;11.80;99.90;;;;;;4993839;28;20500;-71
2024/01/31 10:28:18;;;;;;;21.77;19.37;;;12.10;99.90;;;;;;5007141;28;20951;-71
2024/01/31 10:30:44;;;;;;;21.57;19.30;;;11.70;99.90;;;;;;5013315;28;20218;-71
2024/01/31 10:33:11;;;;;;;24.60;19.87;;;11.50;99.90;;;;;;5013655;28;20989;-70
2024/01/31 10:35:39;;;;;;;19.57;17.57;;;11.50;99.90;;;;;;5013076;28;20455;-71
2024/01/31 10:38:06;;;;;;;20.13;18.03;;;11.70;99.90;;;;;;5000449;28;20403;-71
2024/01/31 10:40:33;;;;;;;29.50;20.37;;;11.90;99.90;;;;;;4993299;28;20424;-71
2024/01/31 10:43:00;;;;;;;20.87;17.63;;;12.10;99.90;;;;;;4993244;28;20397;-71
2024/01/31 10:45:26;;;;;;;21.97;17.33;;;12.30;99.90;;;;;;4993357;28;20827;-70
2024/01/31 10:47:53;;;;;;;20.47;18.40;;;12.10;99.90;;;;;;5003856;28;20404;-70
2024/01/31 10:50:18;;;;;;;20.67;17.87;;;11.70;99.90;;;;;;5012617;28;20403;-70
2024/01/31 10:52:45;;;;;;;22.63;18.87;;;11.70;99.90;;;;;;5012234;28;20553;-71
2024/01/31 10:55:11;;;;;;;27.17;21.30;;;11.60;99.90;;;;;;5013638;28;20409;-72
2024/01/31 10:57:39;;;;;;;24.00;17.97;;;11.50;99.90;;;;;;5008392;28;20935;-69
2024/01/31 11:00:08;;;;;;;19.17;17.10;;;11.60;99.90;;;;;;4997463;28;20432;-71
2024/01/31 11:02:35;;;;;;;21.57;19.27;;;11.80;99.90;;;;;;4997531;28;20409;-71
2024/01/31 11:05:01;;;;;;;22.70;18.77;;;11.80;99.90;;;;;;4997552;28;20445;-71
2024/01/31 11:07:27;;;;;;;21.23;18.27;;;12.00;99.90;;;;;;5003944;28;20447;-71
2024/01/31 11:09:54;;;;;;;26.60;19.83;;;12.20;99.90;;;;;;5016620;28;20437;-71
2024/01/31 11:12:19;;;;;;;21.77;19.40;;;12.40;99.90;;;;;;5016428;28;20205;-71
2024/01/31 11:14:47;;;;;;;19.90;17.80;;;12.40;99.90;;;;;;5016723;28;20896;-71
2024/01/31 11:17:22;;;;;;;21.33;19.03;;;12.20;99.90;;;;;;5016501;28;20173;-70
2024/01/31 11:19:52;;;;;;;22.23;19.03;;;12.00;99.90;;;;;;5016690;28;20390;-71
2024/01/31 11:22:21;;;;;;;24.80;19.57;;;12.00;99.90;;;;;;5016180;28;20499;-71
2024/01/31 11:24:51;;;;;;;20.43;18.33;;;12.30;99.90;;;;;;5016766;28;20463;-70
2024/01/31 11:27:18;;;;;;;21.50;19.17;;;12.60;99.90;;;;;;5011026;28;20465;-70
2024/01/31 11:29:46;;;;;;;20.70;18.63;;;12.40;99.90;;;;;;4996772;28;20501;-71
2024/01/31 11:32:12;;;;;;;22.30;19.90;;;12.40;99.90;;;;;;4996905;28;20463;-70
2024/01/31 11:34:39;;;;;;;23.03;20.63;;;12.40;99.90;;;;;;4996796;28;20406;-69
2024/01/31 11:37:05;;;;;;;23.50;19.03;;;12.30;99.90;;;;;;4999859;28;20753;-71
2024/01/31 11:39:31;;;;;;;24.30;21.40;;;12.30;99.90;;;;;;5016079;28;20500;-71
2024/01/31 11:41:56;;;;;;;25.33;20.80;;;12.00;99.90;;;;;;5016072;28;20313;-71
2024/01/31 11:44:23;;;;;;;22.13;19.67;;;12.30;99.90;;;;;;5016167;28;20207;-72
2024/01/31 11:46:50;;;;;;;21.87;19.57;;;12.40;99.90;;;;;;5014855;28;20175;-71
2024/01/31 11:49:16;;;;;;;23.43;20.30;;;12.50;99.90;;;;;;4994906;28;20422;-70
2024/01/31 11:51:42;;;;;;;20.77;18.30;;;12.60;99.90;;;;;;4996547;28;20827;-72
2024/01/31 11:54:08;;;;;;;24.03;19.80;;;12.70;99.90;;;;;;4996433;28;20172;-71
2024/01/31 11:56:34;;;;;;;21.80;19.47;;;12.90;99.90;;;;;;4998606;28;20203;-71
2024/01/31 11:59:00;;;;;;;25.53;18.60;;;12.30;99.90;;;;;;5014797;28;20922;-70
2024/01/31 12:01:27;;;;;;;22.93;18.93;;;11.80;99.90;;;;;;5015666;28;20216;-70
2024/01/31 12:03:53;;;;;;;20.97;18.77;;;11.80;99.90;;;;;;5015664;28;20656;-70
2024/01/31 12:06:19;;;;;;;20.93;18.73;;;11.70;99.90;;;;;;5014989;28;20418;-69
2024/01/31 12:08:47;;;;;;;22.90;18.70;;;12.00;99.90;;;;;;4999113;28;20655;-70
2024/01/31 12:11:14;;;;;;;21.70;18.10;;;12.10;99.90;;;;;;4995830;28;20459;-70
2024/01/31 12:13:40;;;;;;;22.70;19.37;;;12.00;99.90;;;;;;5005861;28;20415;-69
2024/01/31 12:16:06;;;;;;;20.50;17.60;;;12.10;99.90;;;;;;5015423;28;20485;-70
2024/01/31 12:18:32;;;;;;;22.20;19.37;;;12.50;99.90;;;;;;5001158;28;20629;-70
2024/01/31 12:21:04;;;;;;;20.40;18.33;;;12.30;99.90;;;;;;4995559;28;20548;-70
2024/01/31 12:23:31;;;;;;;21.77;19.43;;;12.40;99.90;;;;;;4995663;28;20175;-70
2024/01/31 12:25:57;;;;;;;23.87;18.23;;;12.20;99.90;;;;;;4995714;28;20449;-69
2024/01/31 12:28:27;;;;;;;25.20;19.20;;;12.10;99.90;;;;;;5008798;28;20521;-71
2024/01/31 12:30:53;;;;;;;19.80;17.90;;;12.20;99.90;;;;;;5015054;28;20581;-70
2024/01/31 12:33:19;;;;;;;21.60;18.83;;;12.60;99.90;;;;;;5015141;28;20490;-70